Terminal Aerodrome Forecast
Issued by NWS Louisville, KY

Home | Current Version | Previous Version | Text Only | Print | Product List | Glossary On
Versions: 1 2 3 4 5 6 7 8 9 10 11 12 13 14 15 16 17 18 19 20 21 22
000
FTUS43 KLMK 022200 AAB
TAFBWG
TAF AMD
KBWG 022201Z 0222/0318 VRB05KT P6SM -RA VCTS SCT008CB BKN035
     FM022300 21007KT P6SM VCSH SCT025 BKN060
     FM030400 21007KT 5SM BR VCSH SCT010 BKN100
     FM030800 VRB03KT 4SM BR VCSH BKN008
     FM031400 25006KT 6SM HZ BKN015=

USA.gov is the U.S. government's official web portal to all federal, state and local government web resources and services.